Impacts TAF Board INFO
FOR SITUATIONAL AWARENESS. NOT TO BE USED FOR FLIGHT PLANNING PURPOSES.
IDs:

KCLE - Cleveland/Hopkins In, OH, US

Issued at 0529 UTC 17 Dec 2017
Updated at 0802 UTC 17 Dec 2017
Potential Impact None Slight Moderate High
Time0751Z 17/09Z 17/10Z 17/11Z 17/12Z 17/13Z 17/14Z 17/15Z 17/16Z 17/17Z 17/18Z 17/19Z 17/20Z 17/21Z>>
Type OBS PRVL
  [TEMP]  
PRVL PRVL PRVL PRVL PRVL PRVL PRVL PRVL PRVL PRVL PRVL PRVL
VIS 6 6
  [3]  
4 4 4 4 4 >6 >6 >6 >6 >6 >6 >6
CIG -- --
  [--]  
-- -- -- -- -- 200 200 200 200 200 200 200
Cover FEW SCT
  [SCT]  
SCT SCT SCT SCT SCT BKN BKN BKN BKN BKN BKN BKN
FltCat VFR VFR
  [MVFR]  
MVFR MVFR MVFR MVFR MVFR VFR VFR VFR VFR VFR VFR VFR
WX BR BR
  [BR]  
BR BR BR BR BR -- -- -- -- -- -- --
WDir 70 100
[100]
140 140 140 140 140 150 150 150 150 150 150 150
WSpd 4 5
  [5]  
4 4 4 4 4 6 6 6 6 6 6 6
WGst -- --
  [--]  
-- -- -- -- -- -- -- -- -- -- -- --

Raw TAF
KCLE 170529Z 1706/1812 10005KT 6SM BR FEW008 SCT250
  TEMPO 1706/1710 3SM BR SCT007
  FM171000 14004KT 4SM BR SCT008
  FM171500 15006KT P6SM SCT025 BKN200
  FM172300 19007KT P6SM VCSH SCT070 OVC110
  FM180600 21008KT 6SM BR VCSH OVC025


Raw METAR
KCLE 170751Z 07004KT 6SM BR FEW250 M02/M04 A3017 RMK AO2 SLP224 I1000 T10221039 $
KCLE 170651Z 00000KT 5SM BR SCT250 M03/M04 A3017 RMK AO2 SLP225 I1000 T10331044 $
KCLE 170551Z 13005KT 7SM CLR M02/M03 A3017 RMK AO2 SLP223 4/002 I6001 T10171033 10017 21028 51005 $

METAR Board
Radar Display
Forecast Discussion

FOR SITUATIONAL AWARENESS. NOT TO BE USED FOR FLIGHT PLANNING PURPOSES.